createdAt,value
2022-12-18T00:01:23.269Z,16.40
2022-12-18T00:03:51.654Z,15.70
2022-12-18T00:06:19.847Z,16.67
2022-12-18T00:08:47.498Z,16.53
2022-12-18T00:11:16.743Z,16.17
2022-12-18T00:13:43.846Z,15.80
2022-12-18T00:16:16.258Z,15.73
2022-12-18T00:18:43.717Z,14.67
2022-12-18T00:21:12.396Z,15.53
2022-12-18T00:23:42.364Z,15.77
2022-12-18T00:26:13.486Z,15.00
2022-12-18T00:28:40.129Z,16.50
2022-12-18T00:31:09.231Z,15.13
2022-12-18T00:33:36.934Z,16.10
2022-12-18T00:36:25.523Z,15.93
2022-12-18T00:38:52.539Z,16.13
2022-12-18T00:41:38.853Z,14.90
2022-12-18T00:44:07.559Z,15.27
2022-12-18T00:46:34.436Z,15.20
2022-12-18T00:49:01.247Z,15.53
2022-12-18T00:51:28.185Z,16.80
2022-12-18T00:53:55.338Z,15.47
2022-12-18T00:56:24.312Z,15.73
2022-12-18T00:58:51.165Z,16.23
2022-12-18T01:01:18.423Z,15.93
2022-12-18T01:03:46.275Z,15.23
2022-12-18T01:06:13.991Z,14.50
2022-12-18T01:08:40.810Z,16.50
2022-12-18T01:11:20.564Z,15.87
2022-12-18T01:13:47.301Z,16.10
2022-12-18T01:16:16.739Z,13.63
2022-12-18T01:18:43.515Z,15.50
2022-12-18T01:21:12.652Z,14.87
2022-12-18T01:23:39.839Z,15.17
2022-12-18T01:26:14.104Z,14.90
2022-12-18T01:28:41.399Z,15.80
2022-12-18T01:31:32.660Z,15.20
2022-12-18T01:34:02.638Z,15.70
2022-12-18T01:36:34.411Z,15.17
2022-12-18T01:39:06.616Z,16.13
2022-12-18T01:42:04.112Z,14.70
2022-12-18T01:45:04.578Z,16.02
2022-12-18T01:47:47.816Z,15.37
2022-12-18T01:50:20.492Z,14.30
2022-12-18T01:53:01.078Z,15.87
2022-12-18T01:55:31.361Z,15.70
2022-12-18T01:58:00.159Z,16.07
2022-12-18T02:00:28.108Z,16.27
2022-12-18T02:02:55.355Z,17.10
2022-12-18T02:05:41.059Z,17.80
2022-12-18T02:08:29.179Z,15.73
2022-12-18T02:11:26.788Z,16.10
2022-12-18T02:14:20.738Z,16.47
2022-12-18T02:17:08.264Z,16.73
2022-12-18T02:19:48.434Z,15.60
2022-12-18T02:22:33.906Z,15.83
2022-12-18T02:25:27.651Z,15.63
2022-12-18T02:27:57.326Z,15.10
2022-12-18T02:30:24.481Z,14.93
2022-12-18T02:32:54.050Z,14.63
2022-12-18T02:35:25.579Z,14.65
2022-12-18T02:37:52.905Z,16.80
2022-12-18T02:40:21.699Z,15.60
2022-12-18T02:42:49.080Z,14.57
2022-12-18T02:45:15.999Z,15.30
2022-12-18T02:47:45.728Z,15.83
2022-12-18T02:50:22.332Z,16.75
2022-12-18T02:52:51.772Z,15.00
2022-12-18T02:55:55.415Z,16.35
2022-12-18T02:58:39.285Z,16.52
2022-12-18T03:01:22.749Z,15.87
2022-12-18T03:03:56.719Z,15.60
2022-12-18T03:06:45.884Z,15.03
2022-12-18T03:09:20.363Z,15.40
2022-12-18T03:12:12.315Z,16.10
2022-12-18T03:14:41.390Z,15.65
2022-12-18T03:17:14.526Z,16.45
2022-12-18T03:19:43.167Z,16.30
2022-12-18T03:22:11.724Z,15.27
2022-12-18T03:24:40.519Z,14.80
2022-12-18T03:27:14.869Z,15.40
2022-12-18T03:29:52.677Z,14.75
2022-12-18T03:32:28.047Z,16.00
2022-12-18T03:35:00.568Z,14.93
2022-12-18T03:37:27.358Z,15.73
2022-12-18T03:39:54.130Z,15.45
2022-12-18T03:42:38.264Z,14.82
2022-12-18T03:45:20.761Z,15.55
2022-12-18T03:47:54.740Z,17.13
2022-12-18T03:50:28.410Z,17.17
2022-12-18T03:53:17.234Z,15.65
2022-12-18T03:55:45.238Z,16.17
2022-12-18T03:58:16.496Z,16.17
2022-12-18T04:00:44.953Z,16.35
2022-12-18T04:03:13.001Z,18.00
2022-12-18T04:05:40.897Z,15.87
2022-12-18T04:08:07.657Z,16.67
2022-12-18T04:10:34.365Z,16.30
2022-12-18T04:13:01.144Z,16.15
2022-12-18T04:15:27.840Z,16.03
2022-12-18T04:17:54.736Z,16.38
2022-12-18T04:20:21.585Z,15.95
2022-12-18T04:22:48.713Z,16.33
2022-12-18T04:25:15.759Z,16.48
2022-12-18T04:27:42.448Z,15.40
2022-12-18T04:30:09.633Z,16.67
2022-12-18T04:32:36.421Z,15.67
2022-12-18T04:35:05.226Z,15.18
2022-12-18T04:37:31.921Z,16.58
2022-12-18T04:39:58.708Z,15.60
2022-12-18T04:42:25.386Z,16.15
2022-12-18T04:44:52.062Z,14.43
2022-12-18T04:47:18.732Z,16.07
2022-12-18T04:49:45.344Z,16.17
2022-12-18T04:52:12.011Z,15.73
2022-12-18T04:54:38.690Z,14.98
2022-12-18T04:57:05.335Z,15.13
2022-12-18T04:59:32.001Z,15.98
2022-12-18T05:01:58.739Z,16.52
2022-12-18T05:04:25.522Z,16.70
2022-12-18T05:06:52.282Z,17.23
2022-12-18T05:09:19.017Z,15.82
2022-12-18T05:11:47.580Z,16.63
2022-12-18T05:14:14.233Z,16.35
2022-12-18T05:16:41.035Z,15.65
2022-12-18T05:19:07.793Z,16.40
2022-12-18T05:21:34.557Z,15.63
2022-12-18T05:24:01.219Z,16.08
2022-12-18T05:26:27.894Z,14.88
2022-12-18T05:28:57.216Z,16.60
2022-12-18T05:31:23.929Z,15.50
2022-12-18T05:33:50.757Z,15.00
2022-12-18T05:36:17.471Z,16.42
2022-12-18T05:38:44.201Z,15.10
2022-12-18T05:41:11.004Z,17.38
2022-12-18T05:43:39.484Z,16.63
2022-12-18T05:46:14.102Z,16.15
2022-12-18T05:48:41.150Z,15.27
2022-12-18T05:51:16.303Z,17.50
2022-12-18T05:53:44.191Z,15.55
2022-12-18T05:56:16.533Z,16.17
2022-12-18T05:58:43.314Z,16.15
2022-12-18T06:01:11.686Z,15.27
2022-12-18T06:03:38.771Z,15.52
2022-12-18T06:06:13.102Z,15.55
2022-12-18T06:08:45.875Z,16.17
2022-12-18T06:11:13.171Z,16.08
2022-12-18T06:13:40.677Z,16.35
2022-12-18T06:16:08.970Z,15.30
2022-12-18T06:18:38.830Z,14.35
2022-12-18T06:21:05.591Z,14.02
2022-12-18T06:23:32.278Z,15.38
2022-12-18T06:25:59.814Z,15.32
2022-12-18T06:28:26.475Z,14.97
2022-12-18T06:30:54.030Z,16.00
2022-12-18T06:33:20.711Z,15.17
2022-12-18T06:35:47.447Z,17.13
2022-12-18T06:38:14.135Z,16.98
2022-12-18T06:40:40.834Z,16.30
2022-12-18T06:43:07.570Z,18.38
2022-12-18T06:45:34.480Z,18.30
2022-12-18T06:48:01.714Z,17.55
2022-12-18T06:50:28.542Z,16.50
2022-12-18T06:52:55.281Z,18.30
2022-12-18T06:55:21.948Z,18.08
2022-12-18T06:57:48.657Z,17.50
2022-12-18T07:00:15.623Z,18.13
2022-12-18T07:02:42.661Z,16.57
2022-12-18T07:05:11.025Z,17.17
2022-12-18T07:07:38.070Z,15.97
2022-12-18T07:10:05.059Z,16.77
2022-12-18T07:12:31.733Z,18.73
2022-12-18T07:14:58.416Z,19.63
2022-12-18T07:17:25.079Z,19.97
2022-12-18T07:19:51.725Z,22.10
2022-12-18T07:22:18.511Z,21.60
2022-12-18T07:24:45.138Z,22.93
2022-12-18T07:27:11.805Z,21.80
2022-12-18T07:29:38.476Z,22.30
2022-12-18T07:32:06.531Z,23.00
2022-12-18T07:34:33.566Z,21.30
2022-12-18T07:37:00.285Z,26.13
2022-12-18T07:39:27.509Z,50.20
2022-12-18T07:42:12.968Z,51.53
2022-12-18T07:44:39.977Z,32.40
2022-12-18T07:47:11.754Z,28.37
2022-12-18T07:49:39.121Z,24.93
2022-12-18T07:52:05.782Z,27.03
2022-12-18T07:54:32.471Z,25.43
2022-12-18T07:56:59.124Z,24.20
2022-12-18T07:59:25.833Z,21.60
2022-12-18T08:01:52.638Z,24.63
2022-12-18T08:04:19.518Z,24.30
2022-12-18T08:06:48.124Z,24.17
2022-12-18T08:09:15.355Z,25.37
2022-12-18T08:11:42.037Z,24.70
2022-12-18T08:14:08.964Z,23.97
2022-12-18T08:16:36.051Z,26.17
2022-12-18T08:19:03.454Z,23.50
2022-12-18T08:21:31.881Z,23.43
2022-12-18T08:24:01.395Z,24.43
2022-12-18T08:26:30.231Z,24.60
2022-12-18T08:28:58.749Z,23.33
2022-12-18T08:31:26.817Z,20.33
2022-12-18T08:33:54.716Z,23.50
2022-12-18T08:36:23.213Z,23.33
2022-12-18T08:38:51.269Z,22.87
2022-12-18T08:41:19.190Z,23.63
2022-12-18T08:44:04.985Z,23.27
2022-12-18T08:46:40.163Z,21.90
2022-12-18T08:49:08.068Z,21.60
2022-12-18T08:51:35.658Z,22.90
2022-12-18T08:54:02.734Z,23.30
2022-12-18T08:56:31.233Z,19.40
2022-12-18T08:58:58.233Z,21.37
2022-12-18T09:01:25.191Z,23.20
2022-12-18T09:03:52.315Z,24.27
2022-12-18T09:06:20.708Z,25.40
2022-12-18T09:08:47.467Z,27.30
2022-12-18T09:11:19.682Z,29.93
2022-12-18T09:13:46.342Z,25.27
2022-12-18T09:16:13.194Z,26.33
2022-12-18T09:18:40.337Z,60.43
2022-12-18T09:21:13.300Z,38.20
2022-12-18T09:23:40.291Z,28.70
2022-12-18T09:26:07.406Z,28.60
2022-12-18T09:28:34.283Z,27.73
2022-12-18T09:31:06.846Z,26.40
2022-12-18T09:33:33.748Z,28.17
2022-12-18T09:36:03.274Z,33.60
2022-12-18T09:38:29.935Z,32.17
2022-12-18T09:41:34.903Z,27.50
2022-12-18T09:44:21.466Z,27.60
2022-12-18T09:47:15.520Z,28.70
2022-12-18T09:49:48.673Z,28.70
2022-12-18T09:52:40.915Z,26.83
2022-12-18T09:55:23.581Z,27.00
2022-12-18T09:57:57.949Z,25.00
2022-12-18T10:00:26.071Z,27.43
2022-12-18T10:03:00.607Z,28.00
2022-12-18T10:05:46.125Z,30.27
2022-12-18T10:08:22.899Z,28.33
2022-12-18T10:10:58.153Z,28.60
2022-12-18T10:13:34.584Z,27.73
2022-12-18T10:16:27.931Z,31.10
2022-12-18T10:19:24.949Z,28.90
2022-12-18T10:22:22.381Z,32.07
2022-12-18T10:25:27.915Z,34.10
2022-12-18T10:27:59.051Z,31.07
2022-12-18T10:30:27.228Z,33.47
2022-12-18T10:32:55.094Z,33.47
2022-12-18T10:35:25.794Z,41.67
2022-12-18T10:38:22.904Z,33.40
2022-12-18T10:40:54.428Z,27.70
2022-12-18T10:43:24.532Z,28.53
2022-12-18T10:46:09.389Z,25.90
2022-12-18T10:48:50.495Z,25.90
2022-12-18T10:51:24.935Z,23.20
2022-12-18T10:54:23.065Z,25.17
2022-12-18T10:56:49.882Z,26.33
2022-12-18T10:59:18.409Z,21.17
2022-12-18T11:01:53.248Z,22.17
2022-12-18T11:04:33.871Z,22.50
2022-12-18T11:07:03.876Z,25.50
2022-12-18T11:09:33.371Z,22.23
2022-12-18T11:12:04.960Z,22.60
2022-12-18T11:14:46.590Z,21.07
2022-12-18T11:17:34.502Z,24.20
2022-12-18T11:20:04.277Z,23.27
2022-12-18T11:22:33.465Z,20.13
2022-12-18T11:28:00.443Z,21.60
2022-12-18T11:30:33.967Z,23.00
2022-12-18T11:33:10.450Z,26.93
2022-12-18T11:35:55.979Z,26.40
2022-12-18T11:38:48.704Z,23.93
2022-12-18T11:42:12.492Z,22.20
2022-12-18T11:45:00.514Z,26.30
2022-12-18T11:47:35.445Z,19.70
2022-12-18T11:50:12.657Z,20.93
2022-12-18T11:52:41.346Z,24.20
2022-12-18T11:55:59.352Z,23.17
2022-12-18T11:58:48.687Z,21.30
2022-12-18T12:01:43.813Z,22.13
2022-12-18T12:04:30.124Z,22.57
2022-12-18T12:07:24.355Z,23.30
2022-12-18T12:10:03.012Z,22.00
2022-12-18T12:13:06.921Z,23.73
2022-12-18T12:15:40.407Z,26.40
2022-12-18T12:18:38.015Z,24.53
2022-12-18T12:21:27.333Z,23.30
2022-12-18T12:24:15.686Z,18.70
2022-12-18T12:27:09.433Z,20.60
2022-12-18T12:29:55.032Z,24.00
2022-12-18T12:33:02.628Z,19.63
2022-12-18T12:35:32.778Z,18.67
2022-12-18T12:38:22.458Z,17.60
2022-12-18T12:41:32.474Z,18.37
2022-12-18T12:44:04.085Z,17.80
2022-12-18T12:46:34.224Z,18.57
2022-12-18T12:49:03.959Z,16.57
2022-12-18T12:51:34.954Z,17.70
2022-12-18T12:54:05.220Z,17.37
2022-12-18T12:56:54.646Z,16.70
2022-12-18T12:59:45.766Z,17.30
2022-12-18T13:02:15.678Z,17.33
2022-12-18T13:05:07.449Z,18.43
2022-12-18T13:07:41.508Z,16.50
2022-12-18T13:10:26.822Z,16.23
2022-12-18T13:13:08.933Z,15.97
2022-12-18T13:15:48.203Z,16.40
2022-12-18T13:18:20.252Z,16.23
2022-12-18T13:20:59.950Z,14.57
2022-12-18T13:23:37.499Z,18.23
2022-12-18T13:26:07.407Z,17.17
2022-12-18T13:28:34.262Z,17.97
2022-12-18T13:31:02.695Z,16.17
2022-12-18T13:33:29.872Z,17.00
2022-12-18T13:36:29.699Z,16.43
2022-12-18T13:39:34.897Z,14.97
2022-12-18T13:42:08.864Z,15.03
2022-12-18T13:44:40.598Z,17.07
2022-12-18T13:47:34.405Z,16.73
2022-12-18T13:50:10.076Z,16.40
2022-12-18T13:52:40.561Z,16.67
2022-12-18T13:55:17.179Z,16.03
2022-12-18T13:57:43.951Z,14.73
2022-12-18T14:00:29.651Z,16.77
2022-12-18T14:02:58.604Z,17.10
2022-12-18T14:05:34.778Z,16.73
2022-12-18T14:08:06.748Z,16.70
2022-12-18T14:10:47.809Z,16.80
2022-12-18T14:13:27.860Z,16.57
2022-12-18T14:15:55.164Z,17.30
2022-12-18T14:18:45.389Z,17.00
2022-12-18T14:21:22.155Z,16.17
2022-12-18T14:23:48.978Z,18.63
2022-12-18T14:26:24.016Z,18.40
2022-12-18T14:28:50.815Z,17.90
2022-12-18T14:31:22.253Z,18.20
2022-12-18T14:33:49.078Z,15.33
2022-12-18T14:36:21.855Z,18.53
2022-12-18T14:38:56.236Z,17.93
2022-12-18T14:41:23.980Z,16.17
2022-12-18T14:43:53.057Z,17.33
2022-12-18T14:46:28.225Z,18.27
2022-12-18T14:48:56.443Z,19.73
2022-12-18T14:51:25.723Z,20.47
2022-12-18T14:54:09.235Z,19.97
2022-12-18T14:56:37.956Z,17.00
2022-12-18T14:59:19.233Z,14.47
2022-12-18T15:01:49.012Z,16.87
2022-12-18T15:04:29.275Z,17.10
2022-12-18T15:07:17.261Z,15.10
2022-12-18T15:10:01.792Z,16.87
2022-12-18T15:12:37.027Z,16.53
2022-12-18T15:15:05.212Z,18.37
2022-12-18T15:17:32.141Z,17.03
2022-12-18T15:20:09.117Z,16.77
2022-12-18T15:22:37.046Z,17.50
2022-12-18T15:25:23.638Z,15.10
2022-12-18T15:27:50.590Z,16.30
2022-12-18T15:30:20.817Z,14.70
2022-12-18T15:32:48.627Z,17.87
2022-12-18T15:35:22.072Z,15.57
2022-12-18T15:37:49.635Z,14.83
2022-12-18T15:40:18.691Z,16.53
2022-12-18T15:43:06.007Z,15.20
2022-12-18T15:45:32.889Z,17.50
2022-12-18T15:47:59.898Z,16.00
2022-12-18T15:50:26.863Z,16.07
2022-12-18T15:52:56.346Z,17.27
2022-12-18T15:55:43.635Z,16.97
2022-12-18T15:58:12.135Z,15.47
2022-12-18T16:00:41.128Z,17.37
2022-12-18T16:03:08.424Z,16.00
2022-12-18T16:05:35.354Z,16.73
2022-12-18T16:08:02.075Z,17.13
2022-12-18T16:10:28.951Z,17.77
2022-12-18T16:12:56.010Z,17.40
2022-12-18T16:15:24.903Z,16.93
2022-12-18T16:17:52.811Z,15.53
2022-12-18T16:20:22.962Z,17.23
2022-12-18T16:22:50.351Z,18.97
2022-12-18T16:25:26.506Z,17.97
2022-12-18T16:27:56.034Z,18.57
2022-12-18T16:30:38.012Z,17.63
2022-12-18T16:33:05.678Z,15.60
2022-12-18T16:35:34.517Z,17.50
2022-12-18T16:38:01.193Z,16.80
2022-12-18T16:40:27.933Z,15.90
2022-12-18T16:42:54.612Z,16.50
2022-12-18T16:45:21.356Z,15.90
2022-12-18T16:47:48.288Z,15.60
2022-12-18T16:50:15.012Z,17.07
2022-12-18T16:52:41.857Z,17.20
2022-12-18T16:55:10.023Z,16.27
2022-12-18T16:57:36.752Z,17.80
2022-12-18T17:00:06.047Z,19.77
2022-12-18T17:02:33.753Z,18.50
2022-12-18T17:05:01.058Z,17.70
2022-12-18T17:07:29.091Z,16.37
2022-12-18T17:09:56.052Z,17.20
2022-12-18T17:12:23.634Z,18.63
2022-12-18T17:14:50.647Z,17.93
2022-12-18T17:17:22.751Z,18.03
2022-12-18T17:19:50.658Z,18.50
2022-12-18T17:22:17.318Z,15.70
2022-12-18T17:24:44.085Z,17.50
2022-12-18T17:27:10.845Z,17.87
2022-12-18T17:29:40.101Z,17.97
2022-12-18T17:32:12.487Z,16.67
2022-12-18T17:34:39.161Z,17.13
2022-12-18T17:37:05.920Z,17.50
2022-12-18T17:39:33.470Z,16.07
2022-12-18T17:42:01.289Z,17.70
2022-12-18T17:44:28.041Z,17.93
2022-12-18T17:46:54.749Z,17.23
2022-12-18T17:49:21.667Z,19.60
2022-12-18T17:51:48.801Z,18.77
2022-12-18T17:54:15.517Z,20.23
2022-12-18T17:56:42.435Z,18.63
2022-12-18T17:59:09.575Z,18.17
2022-12-18T18:01:41.134Z,19.13
2022-12-18T18:04:11.040Z,18.37
2022-12-18T18:06:39.063Z,17.03
2022-12-18T18:09:16.452Z,17.73
2022-12-18T18:12:06.228Z,18.73
2022-12-18T18:14:33.063Z,18.00
2022-12-18T18:17:04.539Z,20.17
2022-12-18T18:19:32.138Z,18.97
2022-12-18T18:21:58.922Z,18.10
2022-12-18T18:24:25.931Z,18.57
2022-12-18T18:26:59.996Z,18.40
2022-12-18T18:29:30.309Z,18.10
2022-12-18T18:31:57.498Z,16.50
2022-12-18T18:34:26.918Z,16.93
2022-12-18T18:36:53.797Z,18.57
2022-12-18T18:39:20.989Z,18.90
2022-12-18T18:41:48.761Z,17.47
2022-12-18T18:44:20.646Z,18.90
2022-12-18T18:46:53.327Z,17.40
2022-12-18T18:49:19.952Z,19.60
2022-12-18T18:51:46.848Z,18.10
2022-12-18T18:54:13.874Z,18.80
2022-12-18T18:57:18.402Z,17.97
2022-12-18T18:59:31.880Z,20.70
2022-12-18T19:02:00.643Z,20.20
2022-12-18T19:04:31.778Z,20.03
2022-12-18T19:06:58.526Z,19.40
2022-12-18T19:09:26.221Z,18.10
2022-12-18T19:12:12.177Z,19.30
2022-12-18T19:14:39.179Z,19.50
2022-12-18T19:17:05.827Z,19.60
2022-12-18T19:19:32.966Z,18.20
2022-12-18T19:21:59.775Z,21.50
2022-12-18T19:24:26.562Z,21.37
2022-12-18T19:26:56.384Z,20.63
2022-12-18T19:29:25.152Z,22.77
2022-12-18T19:31:52.032Z,24.57
2022-12-18T19:34:18.940Z,24.37
2022-12-18T19:36:45.744Z,22.90
2022-12-18T19:39:17.894Z,19.70
2022-12-18T19:41:46.467Z,19.40
2022-12-18T19:44:14.694Z,18.13
2022-12-18T19:46:42.836Z,18.73
2022-12-18T19:49:18.046Z,19.50
2022-12-18T19:51:45.746Z,18.80
2022-12-18T19:54:17.182Z,19.83
2022-12-18T19:56:44.492Z,20.60
2022-12-18T19:59:11.200Z,19.87
2022-12-18T20:01:38.201Z,19.70
2022-12-18T20:04:05.542Z,23.77
2022-12-18T20:06:47.252Z,21.80
2022-12-18T20:09:14.004Z,21.07
2022-12-18T20:11:41.828Z,20.80
2022-12-18T20:14:10.852Z,21.03
2022-12-18T20:16:38.018Z,22.90
2022-12-18T20:19:05.468Z,19.93
2022-12-18T20:21:32.746Z,20.83
2022-12-18T20:24:00.114Z,21.37
2022-12-18T20:26:27.749Z,19.37
2022-12-18T20:28:54.825Z,19.90
2022-12-18T20:31:21.888Z,17.87
2022-12-18T20:33:50.956Z,19.07
2022-12-18T20:36:22.458Z,20.13
2022-12-18T20:38:54.660Z,20.30
2022-12-18T20:41:24.388Z,19.40
2022-12-18T20:43:51.643Z,19.17
2022-12-18T20:46:18.533Z,20.43
2022-12-18T20:48:45.265Z,19.70
2022-12-18T20:51:18.430Z,20.47
2022-12-18T20:53:46.444Z,19.93
2022-12-18T20:56:21.864Z,22.67
2022-12-18T20:58:49.714Z,23.87
2022-12-18T21:01:19.980Z,22.43
2022-12-18T21:03:47.366Z,22.90
2022-12-18T21:06:15.659Z,22.40
2022-12-18T21:08:42.803Z,22.83
2022-12-18T21:11:35.668Z,22.10
2022-12-18T21:14:10.934Z,21.27
2022-12-18T21:16:38.118Z,22.87
2022-12-18T21:19:04.830Z,21.63
2022-12-18T21:21:34.759Z,20.90
2022-12-18T21:24:06.006Z,21.53
2022-12-18T21:26:32.813Z,22.20
2022-12-18T21:29:01.371Z,20.87
2022-12-18T21:31:31.394Z,22.87
2022-12-18T21:34:02.183Z,22.77
2022-12-18T21:36:30.141Z,20.57
2022-12-18T21:38:57.585Z,21.50
2022-12-18T21:41:44.365Z,23.53
2022-12-18T21:44:14.752Z,22.37
2022-12-18T21:46:51.358Z,22.13
2022-12-18T21:49:22.150Z,24.70
2022-12-18T21:51:57.722Z,23.40
2022-12-18T21:54:26.255Z,25.30
2022-12-18T21:56:54.110Z,23.53
2022-12-18T21:59:25.084Z,24.43
2022-12-18T22:01:53.821Z,23.53
2022-12-18T22:04:21.678Z,24.90
2022-12-18T22:06:48.712Z,23.40
2022-12-18T22:09:17.226Z,22.80
2022-12-18T22:11:44.112Z,22.67
2022-12-18T22:14:11.075Z,23.03
2022-12-18T22:16:37.763Z,20.13
2022-12-18T22:19:05.164Z,21.83
2022-12-18T22:21:34.437Z,21.53
2022-12-18T22:24:04.057Z,21.17
2022-12-18T22:26:39.453Z,22.27
2022-12-18T22:29:26.239Z,20.70
2022-12-18T22:31:52.886Z,22.30
2022-12-18T22:34:23.073Z,23.60
2022-12-18T22:36:50.717Z,20.77
2022-12-18T22:39:25.533Z,21.67
2022-12-18T22:41:52.840Z,24.60
2022-12-18T22:44:20.027Z,24.70
2022-12-18T22:46:50.797Z,24.37
2022-12-18T22:49:29.569Z,23.73
2022-12-18T22:51:56.392Z,21.60
2022-12-18T22:54:23.441Z,20.70
2022-12-18T22:56:50.143Z,23.60
2022-12-18T22:59:22.226Z,22.23
2022-12-18T23:01:50.799Z,22.70
2022-12-18T23:04:22.686Z,22.57
2022-12-18T23:06:51.598Z,22.70
2022-12-18T23:09:20.431Z,23.60
2022-12-18T23:11:47.855Z,22.03
2022-12-18T23:14:15.233Z,23.07
2022-12-18T23:16:42.245Z,22.90
2022-12-18T23:19:10.645Z,23.90
2022-12-18T23:21:37.720Z,21.33
2022-12-18T23:24:04.719Z,21.70
2022-12-18T23:26:31.715Z,23.17
2022-12-18T23:28:58.509Z,22.17
2022-12-18T23:31:38.868Z,22.50
2022-12-18T23:34:07.060Z,22.10
2022-12-18T23:36:40.945Z,21.90
2022-12-18T23:39:15.459Z,20.90
2022-12-18T23:41:58.319Z,22.23
2022-12-18T23:44:25.271Z,22.40
2022-12-18T23:46:52.059Z,22.67
2022-12-18T23:49:18.766Z,23.90
2022-12-18T23:51:45.511Z,21.37
2022-12-18T23:54:12.270Z,22.57
2022-12-18T23:56:39.049Z,22.73
2022-12-18T23:59:05.699Z,22.57
